createdAt,value
2018-08-03T00:01:34.713Z,17.20
2018-08-03T00:04:03.940Z,16.90
2018-08-03T00:06:32.385Z,15.87
2018-08-03T00:09:01.036Z,17.10
2018-08-03T00:11:30.029Z,16.73
2018-08-03T00:13:59.038Z,16.13
2018-08-03T00:16:27.542Z,15.60
2018-08-03T00:18:56.097Z,15.23
2018-08-03T00:21:24.499Z,16.03
2018-08-03T00:23:53.225Z,14.97
2018-08-03T00:26:22.061Z,15.37
2018-08-03T00:28:51.385Z,15.20
2018-08-03T00:31:20.377Z,15.87
2018-08-03T00:33:48.625Z,15.97
2018-08-03T00:36:16.857Z,16.30
2018-08-03T00:38:45.717Z,16.70
2018-08-03T00:41:14.017Z,15.47
2018-08-03T00:43:42.265Z,15.47
2018-08-03T00:46:10.855Z,15.47
2018-08-03T00:48:39.091Z,15.93
2018-08-03T00:51:07.966Z,15.73
2018-08-03T00:53:36.528Z,15.73
2018-08-03T00:56:05.130Z,14.70
2018-08-03T00:58:33.359Z,15.43
2018-08-03T01:01:02.552Z,14.80
2018-08-03T01:03:31.309Z,14.83
2018-08-03T01:05:59.917Z,14.47
2018-08-03T01:08:28.366Z,13.97
2018-08-03T01:10:57.497Z,14.33
2018-08-03T01:13:26.255Z,14.73
2018-08-03T01:15:54.351Z,14.80
2018-08-03T01:18:22.909Z,13.80
2018-08-03T01:20:51.455Z,14.47
2018-08-03T01:23:20.046Z,15.07
2018-08-03T01:25:48.393Z,15.43
2018-08-03T01:28:17.007Z,15.73
2018-08-03T01:30:45.569Z,15.03
2018-08-03T01:33:14.444Z,14.63
2018-08-03T01:35:42.821Z,14.50
2018-08-03T01:38:11.479Z,15.70
2018-08-03T01:40:39.712Z,15.30
2018-08-03T01:43:08.009Z,15.10
2018-08-03T01:45:36.286Z,16.00
2018-08-03T01:48:05.463Z,15.83
2018-08-03T01:50:33.765Z,14.67
2018-08-03T01:53:03.927Z,15.40
2018-08-03T01:55:32.298Z,16.23
2018-08-03T01:58:01.073Z,16.17
2018-08-03T02:00:29.660Z,15.87
2018-08-03T02:02:58.001Z,16.07
2018-08-03T02:05:26.293Z,15.17
2018-08-03T02:07:55.057Z,15.17
2018-08-03T02:10:24.261Z,15.27
2018-08-03T02:12:52.822Z,16.00
2018-08-03T02:15:21.379Z,15.77
2018-08-03T02:17:49.962Z,15.50
2018-08-03T02:20:18.082Z,15.70
2018-08-03T02:22:46.375Z,15.33
2018-08-03T02:25:14.682Z,15.70
2018-08-03T02:27:42.903Z,16.10
2018-08-03T02:30:11.129Z,16.30
2018-08-03T02:32:39.962Z,15.73
2018-08-03T02:35:08.406Z,16.43
2018-08-03T02:37:37.197Z,17.33
2018-08-03T02:40:06.083Z,17.73
2018-08-03T02:42:34.931Z,16.47
2018-08-03T02:45:03.593Z,17.13
2018-08-03T02:47:32.110Z,16.27
2018-08-03T02:50:00.673Z,16.17
2018-08-03T02:52:28.902Z,16.77
2018-08-03T02:54:57.262Z,16.37
2018-08-03T02:57:25.474Z,16.67
2018-08-03T02:59:54.259Z,17.60
2018-08-03T03:02:22.826Z,18.47
2018-08-03T03:04:51.425Z,17.70
2018-08-03T03:07:20.040Z,18.10
2018-08-03T03:09:49.231Z,18.33
2018-08-03T03:12:17.485Z,17.83
2018-08-03T03:14:45.701Z,16.83
2018-08-03T03:17:14.224Z,16.90
2018-08-03T03:19:42.870Z,16.87
2018-08-03T03:22:11.569Z,18.30
2018-08-03T03:24:39.748Z,16.83
2018-08-03T03:27:08.384Z,16.97
2018-08-03T03:29:36.766Z,17.50
2018-08-03T03:32:05.062Z,18.27
2018-08-03T03:34:33.247Z,18.03
2018-08-03T03:37:01.601Z,17.73
2018-08-03T03:39:29.793Z,16.57
2018-08-03T03:41:58.295Z,16.97
2018-08-03T03:44:26.493Z,17.63
2018-08-03T03:46:54.978Z,18.43
2018-08-03T03:49:23.868Z,18.17
2018-08-03T03:51:52.857Z,16.50
2018-08-03T03:54:21.231Z,17.60
2018-08-03T03:56:49.438Z,17.33
2018-08-03T03:59:17.967Z,17.33
2018-08-03T04:01:46.197Z,17.03
2018-08-03T04:04:14.438Z,17.33
2018-08-03T04:06:42.916Z,17.10
2018-08-03T04:09:12.565Z,18.57
2018-08-03T04:11:41.631Z,17.63
2018-08-03T04:14:10.117Z,18.93
2018-08-03T04:16:38.625Z,19.20
2018-08-03T04:19:07.129Z,19.50
2018-08-03T04:21:35.627Z,19.80
2018-08-03T04:24:04.101Z,18.43
2018-08-03T04:26:32.437Z,19.53
2018-08-03T04:29:01.028Z,19.47
2018-08-03T04:31:29.613Z,20.00
2018-08-03T04:33:58.192Z,20.70
2018-08-03T04:36:26.949Z,19.53
2018-08-03T04:38:55.196Z,19.57
2018-08-03T04:41:23.733Z,20.90
2018-08-03T04:43:52.629Z,21.10
2018-08-03T04:46:21.110Z,19.63
2018-08-03T04:48:49.755Z,20.57
2018-08-03T04:51:18.256Z,20.13
2018-08-03T04:53:46.914Z,20.10
2018-08-03T04:56:15.684Z,19.97
2018-08-03T04:58:43.888Z,20.63
2018-08-03T05:01:12.127Z,20.97
2018-08-03T05:03:40.390Z,20.30
2018-08-03T05:06:08.909Z,21.17
2018-08-03T05:08:37.120Z,19.10
2018-08-03T05:11:05.420Z,20.13
2018-08-03T05:13:33.856Z,20.80
2018-08-03T05:16:02.358Z,19.77
2018-08-03T05:18:30.766Z,19.63
2018-08-03T05:20:59.088Z,19.10
2018-08-03T05:23:27.577Z,19.00
2018-08-03T05:25:55.807Z,19.50
2018-08-03T05:28:24.417Z,18.87
2018-08-03T05:30:52.499Z,20.57
2018-08-03T05:33:20.779Z,19.07
2018-08-03T05:35:49.313Z,20.23
2018-08-03T05:38:17.525Z,20.63
2018-08-03T05:40:45.785Z,21.50
2018-08-03T05:43:14.658Z,21.43
2018-08-03T05:45:43.240Z,20.40
2018-08-03T05:48:11.811Z,20.33
2018-08-03T05:50:39.977Z,19.67
2018-08-03T05:53:08.224Z,19.47
2018-08-03T05:55:36.492Z,20.53
2018-08-03T05:58:05.235Z,21.53
2018-08-03T06:00:33.461Z,23.30
2018-08-03T06:03:01.715Z,22.53
2018-08-03T06:05:30.721Z,23.20
2018-08-03T06:07:58.963Z,22.87
2018-08-03T06:10:27.160Z,22.47
2018-08-03T06:12:55.378Z,22.40
2018-08-03T06:15:23.608Z,22.87
2018-08-03T06:17:51.833Z,21.23
2018-08-03T06:20:20.336Z,21.27
2018-08-03T06:22:48.840Z,20.27
2018-08-03T06:25:17.069Z,20.03
2018-08-03T06:27:45.296Z,21.33
2018-08-03T06:30:13.966Z,19.90
2018-08-03T06:32:42.359Z,20.43
2018-08-03T06:35:10.549Z,19.37
2018-08-03T06:37:39.072Z,19.80
2018-08-03T06:40:07.337Z,19.23
2018-08-03T06:42:35.537Z,19.33
2018-08-03T06:45:04.809Z,19.03
2018-08-03T06:47:33.284Z,19.07
2018-08-03T06:50:01.710Z,17.30
2018-08-03T06:52:30.528Z,19.00
2018-08-03T06:54:59.040Z,18.17
2018-08-03T06:57:27.622Z,18.33
2018-08-03T06:59:55.860Z,20.13
2018-08-03T07:02:24.449Z,18.27
2018-08-03T07:04:52.710Z,18.47
2018-08-03T07:07:21.229Z,17.27
2018-08-03T07:09:49.693Z,19.17
2018-08-03T07:12:17.976Z,19.27
2018-08-03T07:14:46.316Z,19.80
2018-08-03T07:17:14.505Z,18.70
2018-08-03T07:19:43.077Z,19.23
2018-08-03T07:22:11.297Z,17.73
2018-08-03T07:24:39.766Z,16.50
2018-08-03T07:27:08.028Z,16.50
2018-08-03T07:29:36.606Z,16.33
2018-08-03T07:32:04.928Z,16.27
2018-08-03T07:34:33.681Z,17.60
2018-08-03T07:37:02.135Z,15.50
2018-08-03T07:39:30.703Z,15.53
2018-08-03T07:41:59.488Z,15.67
2018-08-03T07:44:28.260Z,16.33
2018-08-03T07:46:56.779Z,15.97
2018-08-03T07:49:25.495Z,29.60
2018-08-03T07:51:54.376Z,24.20
2018-08-03T07:54:22.661Z,24.17
2018-08-03T07:56:51.824Z,22.23
2018-08-03T07:59:20.939Z,17.47
2018-08-03T08:01:49.414Z,15.83
2018-08-03T08:04:18.224Z,19.20
2018-08-03T08:06:46.577Z,16.67
2018-08-03T08:09:15.113Z,18.30
2018-08-03T08:11:43.671Z,17.50
2018-08-03T08:14:11.925Z,20.17
2018-08-03T08:16:41.342Z,18.60
2018-08-03T08:19:09.775Z,19.10
2018-08-03T08:21:38.327Z,17.27
2018-08-03T08:24:07.022Z,17.57
2018-08-03T08:26:35.576Z,16.07
2018-08-03T08:29:05.325Z,18.67
2018-08-03T08:31:34.406Z,17.10
2018-08-03T08:34:02.739Z,14.87
2018-08-03T08:36:31.315Z,15.27
2018-08-03T08:38:59.821Z,13.67
2018-08-03T08:41:28.509Z,13.77
2018-08-03T08:43:56.906Z,13.90
2018-08-03T08:46:26.248Z,13.93
2018-08-03T08:48:54.862Z,13.83
2018-08-03T08:51:23.092Z,15.63
2018-08-03T08:53:53.237Z,14.73
2018-08-03T08:56:21.550Z,14.00
2018-08-03T08:58:49.900Z,13.73
2018-08-03T09:01:19.178Z,13.67
2018-08-03T09:03:47.386Z,13.00
2018-08-03T09:06:15.855Z,13.10
2018-08-03T09:08:44.351Z,13.23
2018-08-03T09:11:12.819Z,13.33
2018-08-03T09:13:41.115Z,17.77
2018-08-03T09:16:09.543Z,13.50
2018-08-03T09:18:38.328Z,17.63
2018-08-03T09:21:07.347Z,15.00
2018-08-03T09:23:35.631Z,13.77
2018-08-03T09:26:04.716Z,13.80
2018-08-03T09:28:32.956Z,13.53
2018-08-03T09:31:01.700Z,12.70
2018-08-03T09:33:29.978Z,12.97
2018-08-03T09:35:58.542Z,13.67
2018-08-03T09:38:27.470Z,19.63
2018-08-03T09:40:56.886Z,14.50
2018-08-03T09:43:25.623Z,13.70
2018-08-03T09:45:53.945Z,13.90
2018-08-03T09:48:24.144Z,16.70
2018-08-03T09:50:53.629Z,15.43
2018-08-03T09:53:22.140Z,13.03
2018-08-03T09:55:50.764Z,13.60
2018-08-03T09:58:19.026Z,13.70
2018-08-03T10:00:53.084Z,13.70
2018-08-03T10:03:21.349Z,13.77
2018-08-03T10:05:49.590Z,13.13
2018-08-03T10:08:17.900Z,13.73
2018-08-03T10:10:46.588Z,12.67
2018-08-03T10:13:15.571Z,12.73
2018-08-03T10:15:44.847Z,11.80
2018-08-03T10:18:13.277Z,11.83
2018-08-03T10:20:42.073Z,13.57
2018-08-03T10:23:10.661Z,12.20
2018-08-03T10:25:39.249Z,12.43
2018-08-03T10:28:07.688Z,13.87
2018-08-03T10:30:35.977Z,13.50
2018-08-03T10:33:05.150Z,12.23
2018-08-03T10:35:34.198Z,12.27
2018-08-03T10:38:02.407Z,12.53
2018-08-03T10:40:31.357Z,12.67
2018-08-03T10:43:00.066Z,12.87
2018-08-03T10:45:28.553Z,11.90
2018-08-03T10:47:56.789Z,12.70
2018-08-03T10:50:25.560Z,12.87
2018-08-03T10:52:53.771Z,12.40
2018-08-03T10:55:22.232Z,12.10
2018-08-03T10:57:50.400Z,12.27
2018-08-03T11:00:28.270Z,11.23
2018-08-03T11:02:57.257Z,11.70
2018-08-03T11:05:25.773Z,12.00
2018-08-03T11:07:54.593Z,11.80
2018-08-03T11:10:22.838Z,10.80
2018-08-03T11:12:51.694Z,11.13
2018-08-03T11:15:20.328Z,11.30
2018-08-03T11:17:49.492Z,11.90
2018-08-03T11:20:18.219Z,10.93
2018-08-03T11:22:46.653Z,10.40
2018-08-03T11:25:15.010Z,9.87
2018-08-03T11:27:43.704Z,10.10
2018-08-03T11:30:12.576Z,10.30
2018-08-03T11:32:41.255Z,10.23
2018-08-03T11:35:10.915Z,10.70
2018-08-03T11:37:39.165Z,9.70
2018-08-03T11:40:08.146Z,9.43
2018-08-03T11:42:36.882Z,10.13
2018-08-03T11:45:07.389Z,9.43
2018-08-03T11:47:36.273Z,9.87
2018-08-03T11:50:06.880Z,9.80
2018-08-03T11:52:35.448Z,9.40
2018-08-03T11:55:04.339Z,9.47
2018-08-03T11:57:32.901Z,9.37
2018-08-03T12:00:01.742Z,9.13
2018-08-03T12:02:30.331Z,9.43
2018-08-03T12:04:58.494Z,9.20
2018-08-03T12:07:27.336Z,8.90
2018-08-03T12:09:55.558Z,9.03
2018-08-03T12:12:24.266Z,9.50
2018-08-03T12:14:52.477Z,8.67
2018-08-03T12:17:21.697Z,8.50
2018-08-03T12:19:50.666Z,9.67
2018-08-03T12:22:19.348Z,9.23
2018-08-03T12:24:47.629Z,9.67
2018-08-03T12:27:15.853Z,9.23
2018-08-03T12:29:44.679Z,9.00
2018-08-03T12:32:13.246Z,8.70
2018-08-03T12:34:48.143Z,9.40
2018-08-03T12:37:16.742Z,9.57
2018-08-03T12:39:45.029Z,9.30
2018-08-03T12:42:13.246Z,13.73
2018-08-03T12:44:41.822Z,8.53
2018-08-03T12:47:10.026Z,8.30
2018-08-03T12:49:38.621Z,8.37
2018-08-03T12:52:07.218Z,8.50
2018-08-03T12:54:35.500Z,8.43
2018-08-03T12:57:03.856Z,8.93
2018-08-03T12:59:32.157Z,8.80
2018-08-03T13:02:00.638Z,7.80
2018-08-03T13:04:28.910Z,8.23
2018-08-03T13:06:57.466Z,8.30
2018-08-03T13:09:25.702Z,8.40
2018-08-03T13:11:53.890Z,8.53
2018-08-03T13:14:22.336Z,8.20
2018-08-03T13:16:50.838Z,8.60
2018-08-03T13:19:19.037Z,8.07
2018-08-03T13:21:47.578Z,8.23
2018-08-03T13:24:16.120Z,8.27
2018-08-03T13:26:44.386Z,8.43
2018-08-03T13:29:13.511Z,8.70
2018-08-03T13:31:42.212Z,8.40
2018-08-03T13:34:10.440Z,8.30
2018-08-03T13:36:38.925Z,8.03
2018-08-03T13:39:08.547Z,8.43
2018-08-03T13:41:37.386Z,8.27
2018-08-03T13:44:05.625Z,8.43
2018-08-03T13:46:34.677Z,9.27
2018-08-03T13:49:03.171Z,7.40
2018-08-03T13:51:31.413Z,9.23
2018-08-03T13:53:59.757Z,7.63
2018-08-03T13:56:28.277Z,7.27
2018-08-03T13:58:56.509Z,7.30
2018-08-03T14:02:42.141Z,7.00
2018-08-03T14:05:11.222Z,7.37
2018-08-03T14:07:39.518Z,6.80
2018-08-03T14:10:09.290Z,7.53
2018-08-03T14:12:38.039Z,6.87
2018-08-03T14:15:07.216Z,7.00
2018-08-03T14:17:36.156Z,7.53
2018-08-03T14:20:06.017Z,7.27
2018-08-03T14:22:34.858Z,7.10
2018-08-03T14:25:03.381Z,7.70
2018-08-03T14:27:31.628Z,6.90
2018-08-03T14:30:00.012Z,7.93
2018-08-03T14:32:28.316Z,7.83
2018-08-03T14:34:56.500Z,7.53
2018-08-03T14:37:24.711Z,7.07
2018-08-03T14:39:53.166Z,7.97
2018-08-03T14:42:21.761Z,7.60
2018-08-03T14:44:50.002Z,8.03
2018-08-03T14:47:18.616Z,7.37
2018-08-03T14:49:47.829Z,6.70
2018-08-03T14:52:16.006Z,8.00
2018-08-03T14:54:44.276Z,7.77
2018-08-03T14:57:12.583Z,7.33
2018-08-03T14:59:41.168Z,7.50
2018-08-03T15:02:09.784Z,7.70
2018-08-03T15:04:38.264Z,7.47
2018-08-03T15:07:06.732Z,7.70
2018-08-03T15:09:35.257Z,7.10
2018-08-03T15:12:03.826Z,7.57
2018-08-03T15:14:32.055Z,7.43
2018-08-03T15:17:00.560Z,6.93
2018-08-03T15:19:29.082Z,7.30
2018-08-03T15:21:57.569Z,18.37
2018-08-03T15:24:25.854Z,8.83
2018-08-03T15:26:54.078Z,7.40
2018-08-03T15:29:23.175Z,7.50
2018-08-03T15:31:51.425Z,6.93
2018-08-03T15:34:19.754Z,8.17
2018-08-03T15:36:48.029Z,7.60
2018-08-03T15:39:16.296Z,7.17
2018-08-03T15:41:45.058Z,7.80
2018-08-03T15:44:13.338Z,7.40
2018-08-03T15:46:41.597Z,7.00
2018-08-03T15:49:09.873Z,7.20
2018-08-03T15:51:38.129Z,7.90
2018-08-03T15:54:06.330Z,7.60
2018-08-03T15:56:34.578Z,8.07
2018-08-03T15:59:02.763Z,10.27
2018-08-03T16:01:31.104Z,7.43
2018-08-03T16:04:00.180Z,7.80
2018-08-03T16:06:28.641Z,8.13
2018-08-03T16:08:57.121Z,7.50
2018-08-03T16:11:25.340Z,8.57
2018-08-03T16:13:53.642Z,11.43
2018-08-03T16:16:22.462Z,8.63
2018-08-03T16:18:51.028Z,7.30
2018-08-03T16:21:19.563Z,7.30
2018-08-03T16:23:48.454Z,7.40
2018-08-03T16:26:17.031Z,7.60
2018-08-03T16:28:46.197Z,7.57
2018-08-03T16:31:15.291Z,7.73
2018-08-03T16:33:43.500Z,7.77
2018-08-03T16:36:12.283Z,7.77
2018-08-03T16:38:41.028Z,8.07
2018-08-03T16:41:09.274Z,8.70
2018-08-03T16:43:37.733Z,7.80
2018-08-03T16:46:06.636Z,7.30
2018-08-03T16:48:35.312Z,7.47
2018-08-03T16:51:03.685Z,8.03
2018-08-03T16:53:31.898Z,7.77
2018-08-03T16:56:00.513Z,7.47
2018-08-03T16:58:29.003Z,7.47
2018-08-03T17:00:57.460Z,7.63
2018-08-03T17:03:26.013Z,8.13
2018-08-03T17:05:54.861Z,7.63
2018-08-03T17:08:23.037Z,7.93
2018-08-03T17:10:51.534Z,7.50
2018-08-03T17:13:20.440Z,8.47
2018-08-03T17:15:48.974Z,7.80
2018-08-03T17:18:17.216Z,7.73
2018-08-03T17:20:45.786Z,8.40
2018-08-03T17:23:15.003Z,7.90
2018-08-03T17:25:43.583Z,7.87
2018-08-03T17:28:12.207Z,7.97
2018-08-03T17:30:40.522Z,7.43
2018-08-03T17:33:08.885Z,7.83
2018-08-03T17:35:37.760Z,8.13
2018-08-03T17:38:06.380Z,7.83
2018-08-03T17:40:35.763Z,7.63
2018-08-03T17:43:04.091Z,7.47
2018-08-03T17:45:33.008Z,8.37
2018-08-03T17:48:01.330Z,8.27
2018-08-03T17:50:30.887Z,8.77
2018-08-03T17:52:59.094Z,8.00
2018-08-03T17:55:27.346Z,7.87
2018-08-03T17:57:55.641Z,9.90
2018-08-03T18:00:24.257Z,7.67
2018-08-03T18:02:52.571Z,8.20
2018-08-03T18:05:23.281Z,8.20
2018-08-03T18:07:52.005Z,8.43
2018-08-03T18:10:20.437Z,8.23
2018-08-03T18:12:49.167Z,7.70
2018-08-03T18:15:17.704Z,7.90
2018-08-03T18:17:46.308Z,20.77
2018-08-03T18:20:14.827Z,8.43
2018-08-03T18:22:43.509Z,7.87
2018-08-03T18:25:12.971Z,8.00
2018-08-03T18:27:41.462Z,8.77
2018-08-03T18:30:09.775Z,8.23
2018-08-03T18:32:39.081Z,8.73
2018-08-03T18:35:07.894Z,8.10
2018-08-03T18:37:36.708Z,8.37
2018-08-03T18:40:08.223Z,9.13
2018-08-03T18:42:36.653Z,8.67
2018-08-03T18:45:06.724Z,8.77
2018-08-03T18:47:36.003Z,8.57
2018-08-03T18:50:04.814Z,8.27
2018-08-03T18:52:33.070Z,8.30
2018-08-03T18:55:02.171Z,8.27
2018-08-03T18:57:30.774Z,43.33
2018-08-03T18:59:59.584Z,10.80
2018-08-03T19:02:28.119Z,9.50
2018-08-03T19:04:56.729Z,10.33
2018-08-03T19:07:25.288Z,10.73
2018-08-03T19:09:54.094Z,12.30
2018-08-03T19:12:23.399Z,11.30
2018-08-03T19:14:51.862Z,10.10
2018-08-03T19:17:20.747Z,24.80
2018-08-03T19:19:49.216Z,11.50
2018-08-03T19:22:18.159Z,10.17
2018-08-03T19:24:47.922Z,11.47
2018-08-03T19:27:16.734Z,11.57
2018-08-03T19:29:45.551Z,12.13
2018-08-03T19:32:14.556Z,11.77
2018-08-03T19:34:42.963Z,11.57
2018-08-03T19:37:11.376Z,10.20
2018-08-03T19:39:40.209Z,11.60
2018-08-03T19:42:08.695Z,12.73
2018-08-03T19:44:37.838Z,10.87
2018-08-03T19:47:07.813Z,11.60
2018-08-03T19:49:36.322Z,11.27
2018-08-03T19:52:05.107Z,11.60
2018-08-03T19:54:33.602Z,12.23
2018-08-03T19:57:01.935Z,13.60
2018-08-03T19:59:30.644Z,11.50
2018-08-03T20:01:59.623Z,12.83
2018-08-03T20:04:27.969Z,10.93
2018-08-03T20:06:56.572Z,10.50
2018-08-03T20:09:24.998Z,12.63
2018-08-03T20:11:55.080Z,13.80
2018-08-03T20:14:24.031Z,11.77
2018-08-03T20:16:52.456Z,11.63
2018-08-03T20:19:20.750Z,11.33
2018-08-03T20:21:49.253Z,11.83
2018-08-03T20:24:17.956Z,11.33
2018-08-03T20:26:46.257Z,11.60
2018-08-03T20:29:15.147Z,12.10
2018-08-03T20:31:43.626Z,11.03
2018-08-03T20:34:12.345Z,11.67
2018-08-03T20:36:40.676Z,12.30
2018-08-03T20:39:09.870Z,11.73
2018-08-03T20:41:38.273Z,11.20
2018-08-03T20:44:08.153Z,55.10
2018-08-03T20:46:36.995Z,11.93
2018-08-03T20:49:05.768Z,12.30
2018-08-03T20:51:34.647Z,11.63
2018-08-03T20:54:02.910Z,11.47
2018-08-03T20:56:31.686Z,11.40
2018-08-03T20:59:00.219Z,10.60
2018-08-03T21:01:29.079Z,10.33
2018-08-03T21:03:57.543Z,10.90
2018-08-03T21:06:26.279Z,11.50
2018-08-03T21:08:54.701Z,11.80
2018-08-03T21:11:23.667Z,10.93
2018-08-03T21:13:51.893Z,11.83
2018-08-03T21:16:20.788Z,10.70
2018-08-03T21:18:49.727Z,10.43
2018-08-03T21:21:19.024Z,21.03
2018-08-03T21:23:47.720Z,11.97
2018-08-03T21:26:15.934Z,12.27
2018-08-03T21:28:45.756Z,12.40
2018-08-03T21:31:14.565Z,12.03
2018-08-03T21:33:43.463Z,12.57
2018-08-03T21:36:12.411Z,10.73
2018-08-03T21:38:40.707Z,11.37
2018-08-03T21:41:09.256Z,12.23
2018-08-03T21:43:38.016Z,10.90
2018-08-03T21:46:07.432Z,12.73
2018-08-03T21:48:35.971Z,11.80
2018-08-03T21:51:04.227Z,11.97
2018-08-03T21:53:33.014Z,12.23
2018-08-03T21:56:01.118Z,11.80
2018-08-03T21:58:29.355Z,12.30
2018-08-03T22:00:57.731Z,11.80
2018-08-03T22:03:25.917Z,12.77
2018-08-03T22:05:54.449Z,12.23
2018-08-03T22:08:22.770Z,11.73
2018-08-03T22:10:51.100Z,11.83
2018-08-03T22:13:19.476Z,13.27
2018-08-03T22:15:47.934Z,12.73
2018-08-03T22:18:16.100Z,12.47
2018-08-03T22:20:44.303Z,13.60
2018-08-03T22:23:12.848Z,12.93
2018-08-03T22:25:41.114Z,15.17
2018-08-03T22:28:09.425Z,14.67
2018-08-03T22:30:37.874Z,13.40
2018-08-03T22:33:06.561Z,15.80
2018-08-03T22:35:35.407Z,14.10
2018-08-03T22:38:03.587Z,17.33
2018-08-03T22:40:32.231Z,15.97
2018-08-03T22:43:00.453Z,14.53
2018-08-03T22:45:29.119Z,14.40
2018-08-03T22:47:57.877Z,14.90
2018-08-03T22:50:26.360Z,15.00
2018-08-03T22:52:54.804Z,12.80
2018-08-03T22:55:23.008Z,12.43
2018-08-03T22:57:51.264Z,12.77
2018-08-03T23:00:19.746Z,13.20
2018-08-03T23:02:48.630Z,13.07
2018-08-03T23:05:17.140Z,13.03
2018-08-03T23:07:45.654Z,13.30
2018-08-03T23:10:13.914Z,14.63
2018-08-03T23:12:42.120Z,12.33
2018-08-03T23:15:10.329Z,13.33
2018-08-03T23:17:38.561Z,12.53
2018-08-03T23:20:07.549Z,13.43
2018-08-03T23:22:36.401Z,13.33
2018-08-03T23:25:04.748Z,12.80
2018-08-03T23:27:33.243Z,12.37
2018-08-03T23:30:01.631Z,12.23
2018-08-03T23:32:30.022Z,14.10
2018-08-03T23:34:58.495Z,12.43
2018-08-03T23:37:26.977Z,13.33
2018-08-03T23:39:55.202Z,22.53
2018-08-03T23:42:23.717Z,12.83
2018-08-03T23:44:53.266Z,13.43
2018-08-03T23:47:21.783Z,15.03
2018-08-03T23:49:50.265Z,13.20
2018-08-03T23:52:18.472Z,14.23
2018-08-03T23:54:46.713Z,13.63
2018-08-03T23:57:14.940Z,13.50
2018-08-03T23:59:43.169Z,13.03
